createdAt,value
2022-11-09T00:01:03.615Z,21.80
2022-11-09T00:03:35.899Z,21.70
2022-11-09T00:06:03.887Z,21.90
2022-11-09T00:08:31.843Z,22.10
2022-11-09T00:11:04.143Z,22.00
2022-11-09T00:13:34.204Z,22.20
2022-11-09T00:16:02.374Z,21.90
2022-11-09T00:18:32.014Z,21.20
2022-11-09T00:21:00.014Z,21.30
2022-11-09T00:23:28.002Z,21.60
2022-11-09T00:25:55.936Z,20.70
2022-11-09T00:28:23.891Z,20.70
2022-11-09T00:30:51.901Z,20.50
2022-11-09T00:33:20.110Z,20.10
2022-11-09T00:35:49.695Z,20.10
2022-11-09T00:38:17.674Z,20.50
2022-11-09T00:40:45.942Z,20.70
2022-11-09T00:43:17.377Z,20.90
2022-11-09T00:45:48.314Z,21.10
2022-11-09T00:48:16.247Z,21.20
2022-11-09T00:50:49.647Z,21.30
2022-11-09T00:53:19.362Z,21.10
2022-11-09T00:55:55.715Z,20.70
2022-11-09T00:58:24.418Z,20.50
2022-11-09T01:00:52.837Z,20.80
2022-11-09T01:03:21.872Z,20.70
2022-11-09T01:05:50.548Z,20.70
2022-11-09T01:08:20.837Z,21.00
2022-11-09T01:10:49.663Z,20.90
2022-11-09T01:13:20.641Z,20.60
2022-11-09T01:15:51.050Z,19.80
2022-11-09T01:18:21.364Z,19.00
2022-11-09T01:20:51.249Z,18.80
2022-11-09T01:23:21.489Z,18.90
2022-11-09T01:25:49.801Z,19.00
2022-11-09T01:28:17.723Z,19.70
2022-11-09T01:30:45.714Z,20.00
2022-11-09T01:33:13.766Z,19.80
2022-11-09T01:35:41.920Z,19.90
2022-11-09T01:38:11.039Z,19.40
2022-11-09T01:40:42.259Z,18.70
2022-11-09T01:43:17.963Z,18.40
2022-11-09T01:45:49.484Z,18.60
2022-11-09T01:48:22.435Z,18.50
2022-11-09T01:50:54.353Z,18.90
2022-11-09T01:53:27.168Z,18.80
2022-11-09T01:55:59.981Z,19.20
2022-11-09T01:58:33.607Z,19.60
2022-11-09T02:01:02.401Z,20.00
2022-11-09T02:03:33.667Z,20.30
2022-11-09T02:06:04.732Z,20.60
2022-11-09T02:08:33.069Z,20.80
2022-11-09T02:11:07.812Z,20.80
2022-11-09T02:13:38.041Z,21.00
2022-11-09T02:16:11.459Z,20.80
2022-11-09T02:18:45.159Z,20.80
2022-11-09T02:21:14.490Z,21.00
2022-11-09T02:23:42.504Z,20.40
2022-11-09T02:26:14.603Z,20.60
2022-11-09T02:28:44.093Z,20.70
2022-11-09T02:31:15.885Z,20.10
2022-11-09T02:33:53.974Z,20.60
2022-11-09T02:36:24.047Z,20.70
2022-11-09T02:38:56.596Z,20.00
2022-11-09T02:41:26.096Z,19.20
2022-11-09T02:43:55.700Z,18.20
2022-11-09T02:46:31.666Z,18.20
2022-11-09T02:49:00.282Z,18.50
2022-11-09T02:51:30.321Z,18.80
2022-11-09T02:53:58.291Z,19.40
2022-11-09T02:56:26.697Z,19.90
2022-11-09T02:58:56.179Z,20.20
2022-11-09T03:01:24.297Z,20.30
2022-11-09T03:03:52.376Z,20.30
2022-11-09T03:06:20.326Z,20.40
2022-11-09T03:08:49.690Z,19.80
2022-11-09T03:11:17.746Z,20.40
2022-11-09T03:13:45.932Z,20.60
2022-11-09T03:16:14.979Z,20.30
2022-11-09T03:18:42.903Z,20.20
2022-11-09T03:21:11.596Z,19.50
2022-11-09T03:23:39.579Z,19.60
2022-11-09T03:26:09.556Z,19.10
2022-11-09T03:28:37.862Z,18.90
2022-11-09T03:31:08.114Z,19.20
2022-11-09T03:33:36.522Z,19.40
2022-11-09T03:36:10.073Z,19.60
2022-11-09T03:38:39.417Z,19.80
2022-11-09T03:41:08.775Z,19.80
2022-11-09T03:43:40.267Z,19.70
2022-11-09T03:46:08.201Z,18.90
2022-11-09T03:48:36.166Z,18.50
2022-11-09T03:51:04.218Z,18.20
2022-11-09T03:53:32.140Z,18.10
2022-11-09T03:56:00.091Z,18.20
2022-11-09T03:58:29.376Z,17.70
2022-11-09T04:00:57.290Z,18.50
2022-11-09T04:03:25.312Z,19.20
2022-11-09T04:05:53.247Z,19.40
2022-11-09T04:08:21.169Z,19.80
2022-11-09T04:10:49.375Z,20.00
2022-11-09T04:13:17.691Z,20.20
2022-11-09T04:15:47.399Z,20.30
2022-11-09T04:18:17.169Z,20.00
2022-11-09T04:20:45.335Z,20.10
2022-11-09T04:23:14.461Z,19.80
2022-11-09T04:25:43.721Z,19.50
2022-11-09T04:28:20.646Z,19.40
2022-11-09T04:30:49.937Z,19.80
2022-11-09T04:33:18.180Z,19.40
2022-11-09T04:35:46.350Z,19.70
2022-11-09T04:38:15.459Z,19.80
2022-11-09T04:40:43.597Z,19.50
2022-11-09T04:43:13.797Z,19.70
2022-11-09T04:45:41.957Z,19.90
2022-11-09T04:48:12.904Z,20.20
2022-11-09T04:50:40.817Z,19.70
2022-11-09T04:53:13.497Z,19.80
2022-11-09T04:55:41.982Z,19.40
2022-11-09T04:58:10.062Z,19.90
2022-11-09T05:00:38.634Z,19.60
2022-11-09T05:03:07.989Z,19.90
2022-11-09T05:05:44.046Z,19.60
2022-11-09T05:08:15.049Z,19.80
2022-11-09T05:10:43.022Z,19.90
2022-11-09T05:13:12.962Z,20.20
2022-11-09T05:15:41.501Z,19.70
2022-11-09T05:18:10.796Z,19.50
2022-11-09T05:20:40.242Z,19.80
2022-11-09T05:23:26.024Z,19.60
2022-11-09T05:25:54.040Z,19.80
2022-11-09T05:28:21.963Z,19.60
2022-11-09T05:30:49.938Z,19.90
2022-11-09T05:33:18.359Z,19.50
2022-11-09T05:35:47.790Z,19.40
2022-11-09T05:38:15.732Z,19.00
2022-11-09T05:40:43.693Z,19.50
2022-11-09T05:43:11.652Z,19.80
2022-11-09T05:45:43.886Z,20.00
2022-11-09T05:48:16.363Z,20.10
2022-11-09T05:50:44.870Z,20.20
2022-11-09T05:53:36.351Z,20.30
2022-11-09T05:56:06.097Z,20.40
2022-11-09T05:58:36.375Z,20.40
2022-11-09T06:01:05.677Z,20.60
2022-11-09T06:03:33.805Z,20.50
2022-11-09T06:06:07.955Z,20.60
2022-11-09T06:08:37.943Z,20.70
2022-11-09T06:11:07.655Z,20.30
2022-11-09T06:13:36.061Z,20.50
2022-11-09T06:16:06.211Z,20.70
2022-11-09T06:18:36.655Z,20.40
2022-11-09T06:21:06.527Z,20.30
2022-11-09T06:23:37.121Z,20.00
2022-11-09T06:26:09.529Z,20.50
2022-11-09T06:28:40.382Z,20.80
2022-11-09T06:31:13.481Z,20.90
2022-11-09T06:33:41.655Z,21.10
2022-11-09T06:36:11.162Z,21.20
2022-11-09T06:38:39.221Z,21.50
2022-11-09T06:41:08.543Z,21.60
2022-11-09T06:43:36.621Z,21.30
2022-11-09T06:46:05.775Z,21.60
2022-11-09T06:48:34.224Z,21.80
2022-11-09T06:51:02.447Z,21.70
2022-11-09T06:53:34.071Z,21.90
2022-11-09T06:56:03.689Z,22.10
2022-11-09T06:58:33.218Z,22.30
2022-11-09T07:01:01.269Z,22.20
2022-11-09T07:03:29.235Z,22.40
2022-11-09T07:05:57.414Z,22.50
2022-11-09T07:08:25.327Z,22.70
2022-11-09T07:10:53.268Z,22.80
2022-11-09T07:13:21.648Z,22.90
2022-11-09T07:15:55.444Z,23.00
2022-11-09T07:18:23.736Z,23.00
2022-11-09T07:20:51.673Z,22.00
2022-11-09T07:23:20.308Z,21.40
2022-11-09T07:25:48.476Z,20.90
2022-11-09T07:28:16.944Z,20.50
2022-11-09T07:30:45.275Z,20.70
2022-11-09T07:33:18.071Z,20.90
2022-11-09T07:35:46.660Z,21.00
2022-11-09T07:38:15.905Z,21.20
2022-11-09T07:40:44.402Z,21.80
2022-11-09T07:43:13.546Z,22.60
2022-11-09T07:45:43.292Z,23.10
2022-11-09T07:48:12.867Z,23.50
2022-11-09T07:50:42.519Z,23.80
2022-11-09T07:53:13.763Z,24.20
2022-11-09T07:55:42.364Z,24.40
2022-11-09T07:58:12.850Z,24.20
2022-11-09T08:00:42.249Z,24.30
2022-11-09T08:03:10.897Z,24.40
2022-11-09T08:05:39.979Z,24.40
2022-11-09T08:08:11.430Z,24.40
2022-11-09T08:10:40.631Z,24.50
2022-11-09T08:13:11.321Z,24.40
2022-11-09T08:15:40.544Z,24.10
2022-11-09T08:18:11.685Z,24.20
2022-11-09T08:20:39.654Z,24.50
2022-11-09T08:23:08.995Z,24.70
2022-11-09T08:25:37.600Z,24.80
2022-11-09T08:28:12.041Z,24.90
2022-11-09T08:30:42.665Z,25.10
2022-11-09T08:33:11.562Z,25.30
2022-11-09T08:35:39.739Z,25.30
2022-11-09T08:38:09.557Z,25.50
2022-11-09T08:40:37.708Z,25.60
2022-11-09T08:43:09.565Z,25.70
2022-11-09T08:45:38.757Z,25.80
2022-11-09T08:48:07.903Z,25.90
2022-11-09T08:50:37.304Z,25.90
2022-11-09T08:53:06.277Z,26.00
2022-11-09T08:55:35.849Z,26.00
2022-11-09T08:58:05.874Z,26.10
2022-11-09T09:00:34.007Z,26.20
2022-11-09T09:03:05.012Z,26.30
2022-11-09T09:05:33.494Z,26.40
2022-11-09T09:08:02.111Z,26.30
2022-11-09T09:10:34.287Z,26.00
2022-11-09T09:13:03.935Z,26.00
2022-11-09T09:15:34.448Z,26.30
2022-11-09T09:18:03.035Z,26.60
2022-11-09T09:20:31.387Z,26.50
2022-11-09T09:23:00.365Z,26.70
2022-11-09T09:25:29.188Z,26.90
2022-11-09T09:27:57.180Z,27.00
2022-11-09T09:30:26.684Z,27.20
2022-11-09T09:32:59.229Z,27.30
2022-11-09T09:35:27.457Z,27.20
2022-11-09T09:37:58.018Z,27.30
2022-11-09T09:40:31.141Z,27.20
2022-11-09T09:43:00.917Z,27.50
2022-11-09T09:45:34.359Z,27.70
2022-11-09T09:48:13.939Z,27.70
2022-11-09T09:50:48.076Z,27.80
2022-11-09T09:53:24.999Z,27.90
2022-11-09T09:55:57.257Z,27.20
2022-11-09T09:58:28.285Z,26.80
2022-11-09T10:01:00.885Z,26.50
2022-11-09T10:03:28.993Z,26.20
2022-11-09T10:06:05.831Z,26.80
2022-11-09T10:08:43.530Z,26.80
2022-11-09T10:11:22.529Z,26.80
2022-11-09T10:14:22.027Z,27.10
2022-11-09T10:17:00.255Z,27.10
2022-11-09T10:19:41.350Z,26.70
2022-11-09T10:22:16.827Z,26.60
2022-11-09T10:25:18.483Z,26.30
2022-11-09T10:27:47.154Z,26.40
2022-11-09T10:30:20.490Z,26.40
2022-11-09T10:32:53.074Z,25.90
2022-11-09T10:35:22.968Z,26.00
2022-11-09T10:37:52.423Z,26.00
2022-11-09T10:40:24.385Z,25.80
2022-11-09T10:43:12.618Z,25.40
2022-11-09T10:46:04.776Z,25.30
2022-11-09T10:48:53.940Z,25.30
2022-11-09T10:51:42.311Z,25.70
2022-11-09T10:54:33.208Z,25.80
2022-11-09T10:57:22.197Z,25.20
2022-11-09T11:00:16.130Z,25.20
2022-11-09T11:03:11.979Z,25.30
2022-11-09T11:06:04.250Z,25.20
2022-11-09T11:08:52.827Z,25.10
2022-11-09T11:11:40.272Z,25.60
2022-11-09T11:14:33.271Z,25.90
2022-11-09T11:17:23.290Z,25.80
2022-11-09T11:20:29.022Z,26.00
2022-11-09T11:23:18.841Z,26.20
2022-11-09T11:26:25.973Z,26.90
2022-11-09T11:29:32.898Z,27.10
2022-11-09T11:32:21.361Z,27.30
2022-11-09T11:35:15.304Z,28.00
2022-11-09T11:38:16.044Z,28.20
2022-11-09T11:41:15.490Z,28.50
2022-11-09T11:44:14.108Z,28.60
2022-11-09T11:47:07.924Z,28.50
2022-11-09T11:50:16.973Z,28.50
2022-11-09T11:53:18.238Z,28.30
2022-11-09T11:56:23.820Z,28.00
2022-11-09T11:59:43.220Z,27.60
2022-11-09T12:02:52.442Z,27.50
2022-11-09T12:06:05.231Z,27.60
2022-11-09T12:09:03.778Z,27.70
2022-11-09T12:12:05.626Z,27.30
2022-11-09T12:15:02.777Z,27.70
2022-11-09T12:18:12.487Z,27.90
2022-11-09T12:21:11.313Z,28.10
2022-11-09T12:24:13.175Z,28.10
2022-11-09T12:27:32.841Z,28.50
2022-11-09T12:30:21.932Z,28.30
2022-11-09T12:33:15.557Z,28.70
2022-11-09T12:36:07.679Z,28.60
2022-11-09T12:39:00.638Z,28.30
2022-11-09T12:41:49.414Z,28.70
2022-11-09T12:44:42.749Z,28.20
2022-11-09T12:47:35.408Z,28.60
2022-11-09T12:50:25.409Z,28.80
2022-11-09T12:53:12.018Z,28.80
2022-11-09T12:56:02.613Z,28.80
2022-11-09T12:58:49.598Z,29.00
2022-11-09T13:01:49.136Z,29.10
2022-11-09T13:04:36.148Z,28.80
2022-11-09T13:07:49.429Z,28.70
2022-11-09T13:10:37.958Z,28.90
2022-11-09T13:13:26.294Z,28.90
2022-11-09T13:16:29.061Z,29.00
2022-11-09T13:19:50.287Z,28.80
2022-11-09T13:23:00.349Z,29.00
2022-11-09T13:25:51.052Z,29.30
2022-11-09T13:29:21.536Z,29.40
2022-11-09T13:32:30.085Z,29.50
2022-11-09T13:35:50.354Z,29.60
2022-11-09T13:38:37.526Z,29.40
2022-11-09T13:41:44.704Z,28.90
2022-11-09T13:44:35.950Z,29.10
2022-11-09T13:47:31.834Z,29.20
2022-11-09T13:50:20.518Z,29.30
2022-11-09T13:53:28.816Z,29.40
2022-11-09T13:56:27.014Z,29.40
2022-11-09T13:59:17.951Z,29.40
2022-11-09T14:02:19.722Z,29.40
2022-11-09T14:05:06.526Z,29.40
2022-11-09T14:07:55.877Z,29.40
2022-11-09T14:11:06.668Z,29.30
2022-11-09T14:14:27.944Z,28.90
2022-11-09T14:17:22.233Z,28.60
2022-11-09T14:20:20.099Z,28.30
2022-11-09T14:23:17.019Z,27.60
2022-11-09T14:26:08.699Z,27.90
2022-11-09T14:28:57.314Z,27.70
2022-11-09T14:31:45.776Z,26.90
2022-11-09T14:34:33.680Z,27.10
2022-11-09T14:37:22.225Z,27.20
2022-11-09T14:40:18.149Z,27.00
2022-11-09T14:43:23.774Z,26.90
2022-11-09T14:46:17.837Z,26.60
2022-11-09T14:49:04.958Z,26.50
2022-11-09T14:51:55.252Z,26.30
2022-11-09T14:54:44.821Z,26.00
2022-11-09T14:57:32.231Z,25.60
2022-11-09T15:00:30.974Z,25.40
2022-11-09T15:03:25.867Z,25.50
2022-11-09T15:06:14.917Z,25.00
2022-11-09T15:09:07.065Z,24.80
2022-11-09T15:11:53.977Z,24.60
2022-11-09T15:14:40.816Z,24.60
2022-11-09T15:17:29.936Z,24.70
2022-11-09T15:20:29.753Z,24.00
2022-11-09T15:23:25.300Z,23.90
2022-11-09T15:26:38.562Z,23.90
2022-11-09T15:29:35.128Z,23.60
2022-11-09T15:32:22.865Z,23.80
2022-11-09T15:35:16.893Z,24.00
2022-11-09T15:38:03.770Z,23.70
2022-11-09T15:40:50.480Z,23.60
2022-11-09T15:43:39.184Z,24.20
2022-11-09T15:46:27.575Z,24.10
2022-11-09T15:49:19.356Z,24.10
2022-11-09T15:52:05.994Z,24.40
2022-11-09T15:54:52.450Z,24.70
2022-11-09T15:57:39.507Z,24.60
2022-11-09T16:00:29.463Z,24.10
2022-11-09T16:03:17.749Z,24.60
2022-11-09T16:06:04.339Z,24.80
2022-11-09T16:08:53.222Z,24.70
2022-11-09T16:11:40.133Z,24.50
2022-11-09T16:14:29.596Z,24.50
2022-11-09T16:17:17.369Z,24.20
2022-11-09T16:20:04.591Z,24.00
2022-11-09T16:22:52.033Z,23.90
2022-11-09T16:25:38.661Z,23.60
2022-11-09T16:28:25.431Z,23.70
2022-11-09T16:31:13.382Z,23.40
2022-11-09T16:34:01.145Z,23.60
2022-11-09T16:36:53.966Z,23.50
2022-11-09T16:39:43.138Z,23.10
2022-11-09T16:42:30.925Z,23.40
2022-11-09T16:45:18.431Z,23.30
2022-11-09T16:48:07.091Z,23.40
2022-11-09T16:50:56.117Z,23.70
2022-11-09T16:53:42.739Z,23.90
2022-11-09T16:56:29.414Z,23.90
2022-11-09T16:59:16.279Z,23.90
2022-11-09T17:02:03.210Z,23.70
2022-11-09T17:04:49.652Z,23.60
2022-11-09T17:07:42.806Z,23.40
2022-11-09T17:10:31.140Z,23.60
2022-11-09T17:13:17.724Z,23.70
2022-11-09T17:16:06.674Z,23.80
2022-11-09T17:18:54.731Z,23.80
2022-11-09T17:21:41.171Z,23.90
2022-11-09T17:24:30.023Z,23.90
2022-11-09T17:27:16.473Z,23.60
2022-11-09T17:30:03.125Z,23.50
2022-11-09T17:32:51.252Z,23.00
2022-11-09T17:35:38.107Z,22.90
2022-11-09T17:38:24.907Z,22.90
2022-11-09T17:41:17.465Z,23.10
2022-11-09T17:44:03.816Z,22.70
2022-11-09T17:46:50.258Z,22.90
2022-11-09T17:49:37.232Z,22.80
2022-11-09T17:52:24.037Z,22.70
2022-11-09T17:55:10.765Z,22.50
2022-11-09T17:57:58.921Z,22.40
2022-11-09T18:00:46.116Z,22.50
2022-11-09T18:03:33.185Z,22.40
2022-11-09T18:06:22.623Z,22.40
2022-11-09T18:12:18.445Z,22.20
2022-11-09T18:15:06.942Z,22.20
2022-11-09T18:17:53.558Z,22.00
2022-11-09T18:20:40.171Z,21.70
2022-11-09T18:23:26.862Z,21.70
2022-11-09T18:26:16.946Z,21.70
2022-11-09T18:29:03.812Z,21.50
2022-11-09T18:31:51.839Z,22.10
2022-11-09T18:34:38.489Z,21.90
2022-11-09T18:37:25.090Z,21.80
2022-11-09T18:40:12.102Z,22.00
2022-11-09T18:43:00.277Z,22.40
2022-11-09T18:45:55.388Z,22.60
2022-11-09T18:48:44.125Z,22.80
2022-11-09T18:51:30.740Z,22.80
2022-11-09T18:54:19.126Z,23.00
2022-11-09T18:57:05.960Z,23.00
2022-11-09T18:59:53.472Z,23.00
2022-11-09T19:02:40.074Z,23.00
2022-11-09T19:05:30.293Z,23.00
2022-11-09T19:08:38.646Z,22.90
2022-11-09T19:11:25.968Z,22.50
2022-11-09T19:14:12.908Z,22.10
2022-11-09T19:16:59.860Z,22.10
2022-11-09T19:19:46.482Z,22.20
2022-11-09T19:22:36.529Z,22.40
2022-11-09T19:25:23.198Z,22.40
2022-11-09T19:28:09.955Z,22.00
2022-11-09T19:30:57.529Z,21.70
2022-11-09T19:33:43.947Z,21.90
2022-11-09T19:36:31.651Z,21.90
2022-11-09T19:39:19.988Z,21.90
2022-11-09T19:42:07.118Z,22.00
2022-11-09T19:44:56.619Z,22.20
2022-11-09T19:47:44.501Z,21.90
2022-11-09T19:50:31.241Z,21.90
2022-11-09T19:53:18.332Z,21.90
2022-11-09T19:56:09.102Z,22.00
2022-11-09T19:58:57.260Z,22.20
2022-11-09T20:01:44.397Z,22.00
2022-11-09T20:04:35.271Z,22.30
2022-11-09T20:07:21.963Z,22.40
2022-11-09T20:10:09.190Z,22.50
2022-11-09T20:12:57.362Z,22.50
2022-11-09T20:15:44.078Z,22.60
2022-11-09T20:18:30.688Z,22.60
2022-11-09T20:21:17.472Z,22.50
2022-11-09T20:24:05.052Z,22.50
2022-11-09T20:26:52.429Z,22.60
2022-11-09T20:29:42.699Z,22.60
2022-11-09T20:32:29.339Z,22.60
2022-11-09T20:35:16.412Z,22.60
2022-11-09T20:38:03.221Z,22.70
2022-11-09T20:40:55.209Z,22.60
2022-11-09T20:43:41.871Z,22.70
2022-11-09T20:46:35.715Z,22.60
2022-11-09T20:49:23.243Z,22.40
2022-11-09T20:52:10.064Z,22.20
2022-11-09T20:54:56.394Z,22.00
2022-11-09T20:57:43.040Z,22.00
2022-11-09T21:00:29.893Z,21.80
2022-11-09T21:03:17.706Z,22.00
2022-11-09T21:06:07.327Z,22.30
2022-11-09T21:09:00.261Z,22.40
2022-11-09T21:12:04.579Z,22.60
2022-11-09T21:14:51.677Z,22.70
2022-11-09T21:17:38.483Z,22.60
2022-11-09T21:20:26.562Z,22.70
2022-11-09T21:23:30.878Z,22.70
2022-11-09T21:26:35.607Z,22.70
2022-11-09T21:29:51.681Z,22.70
2022-11-09T21:32:38.141Z,22.70
2022-11-09T21:35:26.389Z,22.70
2022-11-09T21:38:14.965Z,22.50
2022-11-09T21:41:21.516Z,22.00
2022-11-09T21:44:09.131Z,22.10
2022-11-09T21:46:55.756Z,22.10
2022-11-09T21:49:42.574Z,22.00
2022-11-09T21:52:30.385Z,22.00
2022-11-09T21:55:17.142Z,21.80
2022-11-09T21:58:03.531Z,22.00
2022-11-09T22:00:50.227Z,21.90
2022-11-09T22:03:36.866Z,21.70
2022-11-09T22:06:24.030Z,21.00
2022-11-09T22:09:15.199Z,20.20
2022-11-09T22:12:19.632Z,20.10
2022-11-09T22:15:24.937Z,19.60
2022-11-09T22:18:34.361Z,19.30
2022-11-09T22:21:21.297Z,19.20
2022-11-09T22:24:08.499Z,19.00
2022-11-09T22:27:01.067Z,18.60
2022-11-09T22:29:47.424Z,18.60
2022-11-09T22:32:34.128Z,18.50
2022-11-09T22:35:20.602Z,18.80
2022-11-09T22:38:07.291Z,18.30
2022-11-09T22:40:54.335Z,18.40
2022-11-09T22:43:43.898Z,19.10
2022-11-09T22:46:30.586Z,19.70
2022-11-09T22:49:18.184Z,20.30
2022-11-09T22:52:04.857Z,20.60
2022-11-09T22:54:51.150Z,20.90
2022-11-09T22:57:37.914Z,20.90
2022-11-09T23:00:25.684Z,20.90
2022-11-09T23:03:12.485Z,20.80
2022-11-09T23:06:03.493Z,21.10
2022-11-09T23:08:51.422Z,21.10
2022-11-09T23:11:38.015Z,21.40
2022-11-09T23:14:38.682Z,21.20
2022-11-09T23:17:46.532Z,21.00
2022-11-09T23:20:35.661Z,21.30
2022-11-09T23:23:22.694Z,21.60
2022-11-09T23:26:11.283Z,21.80
2022-11-09T23:28:58.274Z,22.10
2022-11-09T23:31:44.762Z,22.00
2022-11-09T23:34:32.485Z,22.20
2022-11-09T23:37:19.349Z,22.30
2022-11-09T23:40:07.388Z,22.20
2022-11-09T23:42:54.191Z,22.20
2022-11-09T23:45:41.651Z,22.20
2022-11-09T23:48:29.201Z,22.40
2022-11-09T23:51:18.450Z,22.20
2022-11-09T23:54:04.947Z,22.30
2022-11-09T23:56:51.423Z,22.00
2022-11-09T23:59:38.053Z,22.00
